createdAt,value
2018-07-23T00:00:10.757Z,16.70
2018-07-23T00:01:10.756Z,16.72
2018-07-23T00:02:10.816Z,16.72
2018-07-23T00:03:10.901Z,16.70
2018-07-23T00:04:10.864Z,16.70
2018-07-23T00:05:10.859Z,16.69
2018-07-23T00:06:10.791Z,16.70
2018-07-23T00:07:10.778Z,16.70
2018-07-23T00:08:10.773Z,16.70
2018-07-23T00:09:10.774Z,16.70
2018-07-23T00:10:10.778Z,16.69
2018-07-23T00:11:10.776Z,16.69
2018-07-23T00:12:10.779Z,16.70
2018-07-23T00:13:10.731Z,16.70
2018-07-23T00:14:10.847Z,16.70
2018-07-23T00:15:10.814Z,16.69
2018-07-23T00:16:10.905Z,16.69
2018-07-23T00:17:10.772Z,16.69
2018-07-23T00:18:10.855Z,16.68
2018-07-23T00:19:10.883Z,16.66
2018-07-23T00:20:10.767Z,16.65
2018-07-23T00:21:10.848Z,16.63
2018-07-23T00:22:10.855Z,16.61
2018-07-23T00:23:10.767Z,16.61
2018-07-23T00:24:10.888Z,16.59
2018-07-23T00:25:10.780Z,16.59
2018-07-23T00:26:10.746Z,16.59
2018-07-23T00:27:10.829Z,16.58
2018-07-23T00:28:10.860Z,16.57
2018-07-23T00:29:10.858Z,16.55
2018-07-23T00:30:10.861Z,16.55
2018-07-23T00:31:10.790Z,16.55
2018-07-23T00:32:10.859Z,16.55
2018-07-23T00:33:10.865Z,16.54
2018-07-23T00:34:10.793Z,16.54
2018-07-23T00:35:10.832Z,16.54
2018-07-23T00:36:10.791Z,16.54
2018-07-23T00:37:10.868Z,16.55
2018-07-23T00:38:10.903Z,16.57
2018-07-23T00:39:10.860Z,16.55
2018-07-23T00:40:10.838Z,16.57
2018-07-23T00:41:10.803Z,16.57
2018-07-23T00:42:10.796Z,16.55
2018-07-23T00:43:10.883Z,16.58
2018-07-23T00:44:10.877Z,16.58
2018-07-23T00:45:10.864Z,16.59
2018-07-23T00:46:10.790Z,16.61
2018-07-23T00:47:10.798Z,16.62
2018-07-23T00:48:10.869Z,16.62
2018-07-23T00:49:10.815Z,16.65
2018-07-23T00:50:10.801Z,16.63
2018-07-23T00:51:10.873Z,16.65
2018-07-23T00:52:10.802Z,16.65
2018-07-23T00:53:10.804Z,16.66
2018-07-23T00:54:10.816Z,16.65
2018-07-23T00:55:10.908Z,16.65
2018-07-23T00:56:10.875Z,16.63
2018-07-23T00:57:10.875Z,16.63
2018-07-23T00:58:10.847Z,16.63
2018-07-23T00:59:10.914Z,16.63
2018-07-23T01:00:10.887Z,16.63
2018-07-23T01:01:10.836Z,16.62
2018-07-23T01:02:10.899Z,16.62
2018-07-23T01:03:10.906Z,16.62
2018-07-23T01:04:10.904Z,16.63
2018-07-23T01:05:10.936Z,16.63
2018-07-23T01:06:10.857Z,16.63
2018-07-23T01:07:10.819Z,16.63
2018-07-23T01:08:10.945Z,16.65
2018-07-23T01:09:10.788Z,16.66
2018-07-23T01:10:10.882Z,16.68
2018-07-23T01:11:10.887Z,16.69
2018-07-23T01:12:10.866Z,16.66
2018-07-23T01:13:10.808Z,16.69
2018-07-23T01:14:10.911Z,16.70
2018-07-23T01:15:10.856Z,16.72
2018-07-23T01:16:10.896Z,16.72
2018-07-23T01:17:10.872Z,16.74
2018-07-23T01:18:10.871Z,16.73
2018-07-23T01:19:10.765Z,16.73
2018-07-23T01:20:10.914Z,16.74
2018-07-23T01:21:10.875Z,16.76
2018-07-23T01:22:10.825Z,16.74
2018-07-23T01:23:10.810Z,16.74
2018-07-23T01:24:10.884Z,16.73
2018-07-23T01:25:10.833Z,16.74
2018-07-23T01:26:10.888Z,16.76
2018-07-23T01:27:10.818Z,16.76
2018-07-23T01:28:10.958Z,16.74
2018-07-23T01:29:10.865Z,16.76
2018-07-23T01:30:10.875Z,16.76
2018-07-23T01:31:10.877Z,16.76
2018-07-23T01:32:10.870Z,16.76
2018-07-23T01:33:10.836Z,16.76
2018-07-23T01:34:10.908Z,16.79
2018-07-23T01:35:10.936Z,16.79
2018-07-23T01:36:10.937Z,16.79
2018-07-23T01:37:10.902Z,16.76
2018-07-23T01:38:10.826Z,16.77
2018-07-23T01:39:10.898Z,16.76
2018-07-23T01:40:10.832Z,16.76
2018-07-23T01:41:10.895Z,16.76
2018-07-23T01:42:10.896Z,16.77
2018-07-23T01:43:10.963Z,16.76
2018-07-23T01:44:10.902Z,16.77
2018-07-23T01:45:10.861Z,16.76
2018-07-23T01:46:10.901Z,16.76
2018-07-23T01:47:10.836Z,16.76
2018-07-23T01:48:10.831Z,16.74
2018-07-23T01:49:10.903Z,16.74
2018-07-23T01:50:10.863Z,16.73
2018-07-23T01:51:10.906Z,16.73
2018-07-23T01:52:10.872Z,16.73
2018-07-23T01:53:10.840Z,16.72
2018-07-23T01:54:10.911Z,16.69
2018-07-23T01:55:10.843Z,16.70
2018-07-23T01:56:10.844Z,16.68
2018-07-23T01:57:10.876Z,16.69
2018-07-23T01:58:10.914Z,16.66
2018-07-23T01:59:10.917Z,16.65
2018-07-23T02:00:10.915Z,16.65
2018-07-23T02:01:10.858Z,16.63
2018-07-23T02:02:10.834Z,16.63
2018-07-23T02:03:10.880Z,16.63
2018-07-23T02:04:10.980Z,16.62
2018-07-23T02:05:10.846Z,16.63
2018-07-23T02:06:10.861Z,16.65
2018-07-23T02:07:10.923Z,16.62
2018-07-23T02:08:10.887Z,16.59
2018-07-23T02:09:10.929Z,16.57
2018-07-23T02:10:10.959Z,16.55
2018-07-23T02:11:10.949Z,16.55
2018-07-23T02:12:10.903Z,16.54
2018-07-23T02:13:10.928Z,16.55
2018-07-23T02:14:10.934Z,16.54
2018-07-23T02:15:10.888Z,16.55
2018-07-23T02:16:10.930Z,16.55
2018-07-23T02:17:10.907Z,16.57
2018-07-23T02:18:10.951Z,16.57
2018-07-23T02:19:10.828Z,16.57
2018-07-23T02:20:10.871Z,16.55
2018-07-23T02:21:10.916Z,16.57
2018-07-23T02:22:10.924Z,16.55
2018-07-23T02:23:10.829Z,16.54
2018-07-23T02:24:10.890Z,16.51
2018-07-23T02:25:10.923Z,16.51
2018-07-23T02:26:10.919Z,16.51
2018-07-23T02:27:10.923Z,16.51
2018-07-23T02:28:10.965Z,16.51
2018-07-23T02:29:10.874Z,16.50
2018-07-23T02:30:10.876Z,16.51
2018-07-23T02:31:10.814Z,16.51
2018-07-23T02:32:10.926Z,16.50
2018-07-23T02:33:10.929Z,16.51
2018-07-23T02:34:10.841Z,16.51
2018-07-23T02:35:10.902Z,16.52
2018-07-23T02:36:10.881Z,16.52
2018-07-23T02:37:10.938Z,16.54
2018-07-23T02:38:10.873Z,16.52
2018-07-23T02:39:10.955Z,16.54
2018-07-23T02:40:10.866Z,16.51
2018-07-23T02:41:10.937Z,16.48
2018-07-23T02:42:10.867Z,16.46
2018-07-23T02:43:10.878Z,16.44
2018-07-23T02:44:10.943Z,16.41
2018-07-23T02:45:10.871Z,16.39
2018-07-23T02:46:10.945Z,16.39
2018-07-23T02:47:10.873Z,16.38
2018-07-23T02:48:10.952Z,16.35
2018-07-23T02:49:10.877Z,16.35
2018-07-23T02:50:10.919Z,16.35
2018-07-23T02:51:10.960Z,16.35
2018-07-23T02:52:10.858Z,16.35
2018-07-23T02:53:10.916Z,16.36
2018-07-23T02:54:10.923Z,16.36
2018-07-23T02:55:10.984Z,16.35
2018-07-23T02:56:10.890Z,16.35
2018-07-23T02:57:10.970Z,16.33
2018-07-23T02:58:10.889Z,16.35
2018-07-23T02:59:10.901Z,16.33
2018-07-23T03:00:10.921Z,16.33
2018-07-23T03:01:10.892Z,16.35
2018-07-23T03:02:10.963Z,16.35
2018-07-23T03:03:10.965Z,16.33
2018-07-23T03:04:10.965Z,16.33
2018-07-23T03:05:10.963Z,16.35
2018-07-23T03:06:10.896Z,16.35
2018-07-23T03:07:10.896Z,16.35
2018-07-23T03:08:10.969Z,16.35
2018-07-23T03:09:11.025Z,16.33
2018-07-23T03:10:10.897Z,16.33
2018-07-23T03:11:10.905Z,16.33
2018-07-23T03:12:10.865Z,16.32
2018-07-23T03:13:10.900Z,16.32
2018-07-23T03:14:10.929Z,16.31
2018-07-23T03:15:10.902Z,16.31
2018-07-23T03:16:10.904Z,16.32
2018-07-23T03:17:10.981Z,16.32
2018-07-23T03:18:10.974Z,16.31
2018-07-23T03:19:10.918Z,16.32
2018-07-23T03:20:10.975Z,16.33
2018-07-23T03:21:10.983Z,16.32
2018-07-23T03:22:10.903Z,16.33
2018-07-23T03:23:10.986Z,16.33
2018-07-23T03:24:10.984Z,16.35
2018-07-23T03:25:10.979Z,16.35
2018-07-23T03:26:10.984Z,16.31
2018-07-23T03:27:10.939Z,16.29
2018-07-23T03:28:10.968Z,16.28
2018-07-23T03:29:10.958Z,16.25
2018-07-23T03:30:11.015Z,16.21
2018-07-23T03:31:10.914Z,16.20
2018-07-23T03:32:10.905Z,16.18
2018-07-23T03:33:10.904Z,16.18
2018-07-23T03:34:11.071Z,16.16
2018-07-23T03:35:11.046Z,16.17
2018-07-23T03:36:11.023Z,16.16
2018-07-23T03:37:10.990Z,16.17
2018-07-23T03:38:11.010Z,16.13
2018-07-23T03:39:11.005Z,16.13
2018-07-23T03:40:11.052Z,16.13
2018-07-23T03:41:10.960Z,16.13
2018-07-23T03:42:11.013Z,16.13
2018-07-23T03:43:11.037Z,16.11
2018-07-23T03:44:10.948Z,16.11
2018-07-23T03:45:10.928Z,16.10
2018-07-23T03:46:10.988Z,16.11
2018-07-23T03:47:10.967Z,16.11
2018-07-23T03:48:11.015Z,16.13
2018-07-23T03:49:10.952Z,16.11
2018-07-23T03:50:10.963Z,16.11
2018-07-23T03:51:10.919Z,16.11
2018-07-23T03:52:10.972Z,16.09
2018-07-23T03:53:11.032Z,16.07
2018-07-23T03:54:11.001Z,16.07
2018-07-23T03:55:10.975Z,16.06
2018-07-23T03:56:10.996Z,16.06
2018-07-23T03:57:11.022Z,16.06
2018-07-23T03:58:11.003Z,16.09
2018-07-23T03:59:10.932Z,16.10
2018-07-23T04:00:11.006Z,16.09
2018-07-23T04:01:11.094Z,16.10
2018-07-23T04:02:10.933Z,16.13
2018-07-23T04:03:11.002Z,16.13
2018-07-23T04:04:10.934Z,16.13
2018-07-23T04:05:11.004Z,16.13
2018-07-23T04:06:10.937Z,16.14
2018-07-23T04:07:11.008Z,16.14
2018-07-23T04:08:11.008Z,16.16
2018-07-23T04:09:10.921Z,16.16
2018-07-23T04:10:10.991Z,16.18
2018-07-23T04:11:11.010Z,16.17
2018-07-23T04:12:11.036Z,16.14
2018-07-23T04:13:10.968Z,16.14
2018-07-23T04:14:10.966Z,16.14
2018-07-23T04:15:11.036Z,16.16
2018-07-23T04:16:11.013Z,16.16
2018-07-23T04:17:10.927Z,16.17
2018-07-23T04:18:10.977Z,16.18
2018-07-23T04:19:10.931Z,16.20
2018-07-23T04:20:11.012Z,16.21
2018-07-23T04:21:10.933Z,16.22
2018-07-23T04:22:11.006Z,16.24
2018-07-23T04:23:11.009Z,16.24
2018-07-23T04:24:10.975Z,16.27
2018-07-23T04:25:10.895Z,16.28
2018-07-23T04:26:11.008Z,16.27
2018-07-23T04:27:11.012Z,16.25
2018-07-23T04:28:10.982Z,16.24
2018-07-23T04:29:11.015Z,16.24
2018-07-23T04:30:11.009Z,16.24
2018-07-23T04:31:10.931Z,16.21
2018-07-23T04:32:10.936Z,16.20
2018-07-23T04:33:10.937Z,16.18
2018-07-23T04:34:11.012Z,16.21
2018-07-23T04:35:10.941Z,16.22
2018-07-23T04:36:10.941Z,16.24
2018-07-23T04:37:10.929Z,16.25
2018-07-23T04:38:10.961Z,16.27
2018-07-23T04:39:11.012Z,16.25
2018-07-23T04:40:10.966Z,16.25
2018-07-23T04:41:10.930Z,16.27
2018-07-23T04:42:11.024Z,16.24
2018-07-23T04:43:10.943Z,16.24
2018-07-23T04:44:10.953Z,16.25
2018-07-23T04:45:10.901Z,16.25
2018-07-23T04:46:11.018Z,16.22
2018-07-23T04:47:11.030Z,16.22
2018-07-23T04:48:10.961Z,16.22
2018-07-23T04:49:11.038Z,16.24
2018-07-23T04:50:10.969Z,16.25
2018-07-23T04:51:10.968Z,16.25
2018-07-23T04:52:11.037Z,16.24
2018-07-23T04:53:11.045Z,16.25
2018-07-23T04:54:10.966Z,16.22
2018-07-23T04:55:11.039Z,16.11
2018-07-23T04:56:11.050Z,16.09
2018-07-23T04:57:11.000Z,16.09
2018-07-23T04:58:11.020Z,16.13
2018-07-23T04:59:11.012Z,16.13
2018-07-23T05:00:11.078Z,16.11
2018-07-23T05:01:11.071Z,16.11
2018-07-23T05:02:11.044Z,16.14
2018-07-23T05:03:11.018Z,16.14
2018-07-23T05:04:11.080Z,16.16
2018-07-23T05:05:11.043Z,16.06
2018-07-23T05:06:10.940Z,15.95
2018-07-23T05:07:10.989Z,15.95
2018-07-23T05:08:10.949Z,15.97
2018-07-23T05:09:11.003Z,15.97
2018-07-23T05:10:11.042Z,15.95
2018-07-23T05:11:10.953Z,15.97
2018-07-23T05:12:11.041Z,15.94
2018-07-23T05:13:10.969Z,15.95
2018-07-23T05:14:10.952Z,15.97
2018-07-23T05:15:10.996Z,15.97
2018-07-23T05:16:10.974Z,16.00
2018-07-23T05:17:11.004Z,15.99
2018-07-23T05:18:10.975Z,15.94
2018-07-23T05:19:10.958Z,15.95
2018-07-23T05:20:11.045Z,15.95
2018-07-23T05:21:10.990Z,15.91
2018-07-23T05:22:10.923Z,15.93
2018-07-23T05:23:11.046Z,15.95
2018-07-23T05:24:10.996Z,15.99
2018-07-23T05:25:10.964Z,16.03
2018-07-23T05:26:10.970Z,16.06
2018-07-23T05:27:10.988Z,16.07
2018-07-23T05:28:11.057Z,16.06
2018-07-23T05:29:10.994Z,16.03
2018-07-23T05:30:10.995Z,16.07
2018-07-23T05:31:11.065Z,16.09
2018-07-23T05:32:10.952Z,16.06
2018-07-23T05:33:11.064Z,15.99
2018-07-23T05:34:11.061Z,16.03
2018-07-23T05:36:11.066Z,16.05
2018-07-23T05:37:10.970Z,16.00
2018-07-23T05:38:11.019Z,16.02
2018-07-23T05:39:11.048Z,16.00
2018-07-23T05:40:11.070Z,15.95
2018-07-23T05:41:11.108Z,15.94
2018-07-23T05:42:11.043Z,15.97
2018-07-23T05:43:11.087Z,15.97
2018-07-23T05:44:11.049Z,16.03
2018-07-23T05:45:11.146Z,16.05
2018-07-23T05:46:11.111Z,16.09
2018-07-23T05:47:10.999Z,16.13
2018-07-23T05:48:10.944Z,16.22
2018-07-23T05:49:11.004Z,16.20
2018-07-23T05:50:11.057Z,16.24
2018-07-23T05:51:10.971Z,16.32
2018-07-23T05:52:11.014Z,16.38
2018-07-23T05:53:10.971Z,16.36
2018-07-23T05:54:10.965Z,16.41
2018-07-23T05:55:11.032Z,16.38
2018-07-23T05:56:11.064Z,16.29
2018-07-23T05:57:11.013Z,16.21
2018-07-23T05:58:11.104Z,16.17
2018-07-23T05:59:11.093Z,16.18
2018-07-23T06:00:11.111Z,16.25
2018-07-23T06:01:11.135Z,16.31
2018-07-23T06:02:11.056Z,16.41
2018-07-23T06:03:11.102Z,16.47
2018-07-23T06:04:11.046Z,16.51
2018-07-23T06:05:11.106Z,16.55
2018-07-23T06:06:11.119Z,16.41
2018-07-23T06:07:11.119Z,16.36
2018-07-23T06:08:11.043Z,16.31
2018-07-23T06:09:11.051Z,16.33
2018-07-23T06:10:11.110Z,16.36
2018-07-23T06:11:11.010Z,16.41
2018-07-23T06:12:11.132Z,16.44
2018-07-23T06:13:11.114Z,16.51
2018-07-23T06:14:11.112Z,16.57
2018-07-23T06:15:11.125Z,16.66
2018-07-23T06:16:11.123Z,16.68
2018-07-23T06:17:11.057Z,16.74
2018-07-23T06:18:11.093Z,16.77
2018-07-23T06:19:11.112Z,16.80
2018-07-23T06:20:11.092Z,16.66
2018-07-23T06:21:11.023Z,16.59
2018-07-23T06:22:11.095Z,16.62
2018-07-23T06:23:11.097Z,16.63
2018-07-23T06:24:11.101Z,16.63
2018-07-23T06:25:11.032Z,16.66
2018-07-23T06:26:11.031Z,16.72
2018-07-23T06:27:11.077Z,16.87
2018-07-23T06:28:11.064Z,16.98
2018-07-23T06:29:11.001Z,17.02
2018-07-23T06:30:11.156Z,17.08
2018-07-23T06:31:11.126Z,17.14
2018-07-23T06:32:11.006Z,17.16
2018-07-23T06:33:11.122Z,17.21
2018-07-23T06:34:11.102Z,17.35
2018-07-23T06:35:11.020Z,17.26
2018-07-23T06:36:11.008Z,17.14
2018-07-23T06:37:11.083Z,17.10
2018-07-23T06:38:11.003Z,17.14
2018-07-23T06:39:10.976Z,17.29
2018-07-23T06:40:11.037Z,17.50
2018-07-23T06:41:11.088Z,17.71
2018-07-23T06:42:11.039Z,17.85
2018-07-23T06:43:11.127Z,17.89
2018-07-23T06:44:11.001Z,18.02
2018-07-23T06:45:11.012Z,18.17
2018-07-23T06:46:11.000Z,18.21
2018-07-23T06:47:11.071Z,18.31
2018-07-23T06:48:11.037Z,18.46
2018-07-23T06:49:11.133Z,18.59
2018-07-23T06:50:11.114Z,18.81
2018-07-23T06:51:11.073Z,18.99
2018-07-23T06:52:11.176Z,19.10
2018-07-23T06:53:11.139Z,19.31
2018-07-23T06:54:11.149Z,19.40
2018-07-23T06:55:11.153Z,19.51
2018-07-23T06:56:11.052Z,19.53
2018-07-23T06:57:11.096Z,19.60
2018-07-23T06:58:11.043Z,19.87
2018-07-23T06:59:11.122Z,20.03
2018-07-23T07:00:11.092Z,20.16
2018-07-23T07:01:11.044Z,20.28
2018-07-23T07:02:11.105Z,20.38
2018-07-23T07:03:11.133Z,20.49
2018-07-23T07:04:11.094Z,20.50
2018-07-23T07:05:11.147Z,20.43
2018-07-23T07:06:11.098Z,20.35
2018-07-23T07:07:11.063Z,20.32
2018-07-23T07:08:11.121Z,20.25
2018-07-23T07:09:11.089Z,20.14
2018-07-23T07:10:11.082Z,20.27
2018-07-23T07:11:11.092Z,20.45
2018-07-23T07:12:11.120Z,20.52
2018-07-23T07:13:11.036Z,20.45
2018-07-23T07:14:11.122Z,20.53
2018-07-23T07:15:11.123Z,20.56
2018-07-23T07:16:11.054Z,20.47
2018-07-23T07:17:11.065Z,20.45
2018-07-23T07:18:11.040Z,20.56
2018-07-23T07:19:11.166Z,20.76
2018-07-23T07:20:11.139Z,20.87
2018-07-23T07:21:11.055Z,21.06
2018-07-23T07:22:11.096Z,21.09
2018-07-23T07:23:11.066Z,20.93
2018-07-23T07:24:11.136Z,20.97
2018-07-23T07:25:11.177Z,21.13
2018-07-23T07:26:11.155Z,21.29
2018-07-23T07:27:11.164Z,21.49
2018-07-23T07:28:11.173Z,21.65
2018-07-23T07:29:11.108Z,21.68
2018-07-23T07:30:11.175Z,21.75
2018-07-23T07:31:11.078Z,21.73
2018-07-23T07:32:11.170Z,21.62
2018-07-23T07:33:11.063Z,21.71
2018-07-23T07:34:11.176Z,21.90
2018-07-23T07:35:11.069Z,21.98
2018-07-23T07:36:11.109Z,21.83
2018-07-23T07:37:11.047Z,21.73
2018-07-23T07:38:11.206Z,21.87
2018-07-23T07:39:11.119Z,22.09
2018-07-23T07:40:11.184Z,22.12
2018-07-23T07:41:11.068Z,22.25
2018-07-23T07:42:11.177Z,22.42
2018-07-23T07:43:11.072Z,22.67
2018-07-23T07:44:11.155Z,22.56
2018-07-23T07:45:11.178Z,22.30
2018-07-23T07:46:11.192Z,22.30
2018-07-23T07:47:11.071Z,22.00
2018-07-23T07:48:11.059Z,22.00
2018-07-23T07:49:11.144Z,22.04
2018-07-23T07:50:11.173Z,22.08
2018-07-23T07:51:11.072Z,21.91
2018-07-23T07:52:11.105Z,21.90
2018-07-23T07:53:11.154Z,21.91
2018-07-23T07:54:11.120Z,21.93
2018-07-23T07:55:11.077Z,22.24
2018-07-23T07:56:11.175Z,22.57
2018-07-23T07:57:11.090Z,22.91
2018-07-23T07:58:11.060Z,23.20
2018-07-23T07:59:11.120Z,23.38
2018-07-23T08:00:11.140Z,23.54
2018-07-23T08:01:11.166Z,23.53
2018-07-23T08:02:11.133Z,23.47
2018-07-23T08:03:11.165Z,23.44
2018-07-23T08:04:11.121Z,23.17
2018-07-23T08:05:11.105Z,23.23
2018-07-23T08:06:11.128Z,23.22
2018-07-23T08:07:11.206Z,23.05
2018-07-23T08:08:11.147Z,22.95
2018-07-23T08:09:11.148Z,22.94
2018-07-23T08:10:11.204Z,23.16
2018-07-23T08:11:11.201Z,23.44
2018-07-23T08:12:11.167Z,23.51
2018-07-23T08:13:11.182Z,23.63
2018-07-23T08:14:11.143Z,23.96
2018-07-23T08:15:11.206Z,24.12
2018-07-23T08:16:11.194Z,24.25
2018-07-23T08:17:11.194Z,24.42
2018-07-23T08:18:11.095Z,24.66
2018-07-23T08:19:11.187Z,24.81
2018-07-23T08:20:11.102Z,25.04
2018-07-23T08:21:11.100Z,25.04
2018-07-23T08:22:11.175Z,25.12
2018-07-23T08:23:11.087Z,25.40
2018-07-23T08:24:11.096Z,25.55
2018-07-23T08:25:11.198Z,25.53
2018-07-23T08:26:11.138Z,25.37
2018-07-23T08:27:11.059Z,25.35
2018-07-23T08:28:11.136Z,25.42
2018-07-23T08:29:11.135Z,25.27
2018-07-23T08:30:11.121Z,25.17
2018-07-23T08:31:11.201Z,25.35
2018-07-23T08:32:11.144Z,25.59
2018-07-23T08:33:11.044Z,25.85
2018-07-23T08:34:11.131Z,25.96
2018-07-23T08:35:11.049Z,26.04
2018-07-23T08:36:11.137Z,26.15
2018-07-23T08:37:11.133Z,26.22
2018-07-23T08:38:11.146Z,26.29
2018-07-23T08:39:11.120Z,26.47
2018-07-23T08:40:11.211Z,26.47
2018-07-23T08:41:11.121Z,26.58
2018-07-23T08:42:11.120Z,26.70
2018-07-23T08:43:11.147Z,26.36
2018-07-23T08:44:11.128Z,25.99
2018-07-23T08:45:11.126Z,25.67
2018-07-23T08:46:11.128Z,25.52
2018-07-23T08:47:11.199Z,25.71
2018-07-23T08:48:11.125Z,25.68
2018-07-23T08:49:11.201Z,25.70
2018-07-23T08:50:11.128Z,25.73
2018-07-23T08:51:11.227Z,25.70
2018-07-23T08:52:11.131Z,25.49
2018-07-23T08:53:11.130Z,25.27
2018-07-23T08:54:11.242Z,25.44
2018-07-23T08:55:11.167Z,25.52
2018-07-23T08:56:11.293Z,25.63
2018-07-23T08:57:11.203Z,25.91
2018-07-23T08:58:11.199Z,26.08
2018-07-23T08:59:11.197Z,26.18
2018-07-23T09:00:11.110Z,26.29
2018-07-23T09:01:11.107Z,26.55
2018-07-23T09:02:11.249Z,26.66
2018-07-23T09:03:11.078Z,26.90
2018-07-23T09:04:11.202Z,27.04
2018-07-23T09:05:11.145Z,27.30
2018-07-23T09:06:11.136Z,27.57
2018-07-23T09:07:11.079Z,27.74
2018-07-23T09:08:11.148Z,27.84
2018-07-23T09:09:11.172Z,27.77
2018-07-23T09:10:11.242Z,27.68
2018-07-23T09:11:11.209Z,28.03
2018-07-23T09:12:11.372Z,28.28
2018-07-23T09:13:11.240Z,28.53
2018-07-23T09:14:11.172Z,28.76
2018-07-23T09:15:11.214Z,28.83
2018-07-23T09:16:11.190Z,29.02
2018-07-23T09:17:11.151Z,28.88
2018-07-23T09:18:11.139Z,29.04
2018-07-23T09:19:11.117Z,28.95
2018-07-23T09:20:11.219Z,28.90
2018-07-23T09:21:11.188Z,28.46
2018-07-23T09:22:11.156Z,28.44
2018-07-23T09:23:11.211Z,28.40
2018-07-23T09:24:11.198Z,28.60
2018-07-23T09:25:11.123Z,28.42
2018-07-23T09:26:11.249Z,28.61
2018-07-23T09:27:11.127Z,28.93
2018-07-23T09:28:11.159Z,28.55
2018-07-23T09:29:11.224Z,28.77
2018-07-23T09:30:11.159Z,28.99
2018-07-23T09:31:11.287Z,28.95
2018-07-23T09:32:11.157Z,28.95
2018-07-23T09:33:11.223Z,28.57
2018-07-23T09:34:11.160Z,27.95
2018-07-23T09:35:11.225Z,28.10
2018-07-23T09:36:11.225Z,28.11
2018-07-23T09:37:11.207Z,27.81
2018-07-23T09:38:11.199Z,27.98
2018-07-23T09:39:11.190Z,28.14
2018-07-23T09:40:11.251Z,27.89
2018-07-23T09:41:11.137Z,28.02
2018-07-23T09:42:11.227Z,27.84
2018-07-23T09:43:11.305Z,27.74
2018-07-23T09:44:11.138Z,27.73
2018-07-23T09:45:11.155Z,27.32
2018-07-23T09:46:11.274Z,27.36
2018-07-23T09:47:11.237Z,26.88
2018-07-23T09:48:11.233Z,26.52
2018-07-23T09:49:11.235Z,26.52
2018-07-23T09:50:11.184Z,26.67
2018-07-23T09:51:11.240Z,26.78
2018-07-23T09:52:11.173Z,27.03
2018-07-23T09:53:11.133Z,27.43
2018-07-23T09:54:11.177Z,27.59
2018-07-23T09:55:11.241Z,27.58
2018-07-23T09:56:11.175Z,27.62
2018-07-23T09:57:11.240Z,27.58
2018-07-23T09:58:11.110Z,27.46
2018-07-23T09:59:11.234Z,27.43
2018-07-23T10:00:11.232Z,27.51
2018-07-23T10:01:11.169Z,27.44
2018-07-23T10:02:11.233Z,27.52
2018-07-23T10:03:11.262Z,27.61
2018-07-23T10:04:11.249Z,27.95
2018-07-23T10:05:11.230Z,28.25
2018-07-23T10:06:11.238Z,28.62
2018-07-23T10:07:11.232Z,28.97
2018-07-23T10:08:11.182Z,29.18
2018-07-23T10:09:11.180Z,29.48
2018-07-23T10:10:11.176Z,29.69
2018-07-23T10:11:11.139Z,29.95
2018-07-23T10:12:11.211Z,30.27
2018-07-23T10:13:11.184Z,30.28
2018-07-23T10:14:11.144Z,30.15
2018-07-23T10:16:11.207Z,29.17
2018-07-23T10:17:11.129Z,29.14
2018-07-23T10:18:11.188Z,28.97
2018-07-23T10:19:11.257Z,28.95
2018-07-23T10:20:11.193Z,29.16
2018-07-23T10:21:11.267Z,29.34
2018-07-23T10:22:11.277Z,29.24
2018-07-23T10:23:11.192Z,29.23
2018-07-23T10:24:11.280Z,28.76
2018-07-23T10:25:11.261Z,28.32
2018-07-23T10:26:11.259Z,28.42
2018-07-23T10:27:11.195Z,28.25
2018-07-23T10:28:11.216Z,27.86
2018-07-23T10:29:11.264Z,27.44
2018-07-23T10:30:11.229Z,27.37
2018-07-23T10:31:11.282Z,27.57
2018-07-23T10:32:11.208Z,27.62
2018-07-23T10:33:11.305Z,27.88
2018-07-23T10:34:11.229Z,28.17
2018-07-23T10:35:11.332Z,28.44
2018-07-23T10:36:11.175Z,28.33
2018-07-23T10:37:11.235Z,28.29
2018-07-23T10:38:11.197Z,28.15
2018-07-23T10:39:11.199Z,28.10
2018-07-23T10:40:11.308Z,28.42
2018-07-23T10:41:11.306Z,28.79
2018-07-23T10:42:11.222Z,29.06
2018-07-23T10:43:11.199Z,29.18
2018-07-23T10:44:11.202Z,29.39
2018-07-23T10:45:11.163Z,29.61
2018-07-23T10:46:11.166Z,29.65
2018-07-23T10:47:11.144Z,29.64
2018-07-23T10:48:11.242Z,29.65
2018-07-23T10:49:11.198Z,29.77
2018-07-23T10:50:11.302Z,29.77
2018-07-23T10:51:11.242Z,29.76
2018-07-23T10:52:11.300Z,29.79
2018-07-23T10:53:11.188Z,29.52
2018-07-23T10:54:11.317Z,29.43
2018-07-23T10:55:11.241Z,29.46
2018-07-23T10:56:11.303Z,29.40
2018-07-23T10:57:11.352Z,29.08
2018-07-23T10:58:11.286Z,29.01
2018-07-23T10:59:11.281Z,28.69
2018-07-23T11:00:11.216Z,28.77
2018-07-23T11:01:11.286Z,28.68
2018-07-23T11:02:11.220Z,28.80
2018-07-23T11:03:11.285Z,28.97
2018-07-23T11:04:11.223Z,29.04
2018-07-23T11:05:11.169Z,29.04
2018-07-23T11:06:11.228Z,29.29
2018-07-23T11:07:11.235Z,29.31
2018-07-23T11:08:11.195Z,29.20
2018-07-23T11:09:11.264Z,28.91
2018-07-23T11:10:11.318Z,28.33
2018-07-23T11:11:11.211Z,28.13
2018-07-23T11:12:11.412Z,28.20
2018-07-23T11:13:11.294Z,28.20
2018-07-23T11:14:11.295Z,28.39
2018-07-23T11:15:11.262Z,28.33
2018-07-23T11:16:11.247Z,28.00
2018-07-23T11:17:11.262Z,27.86
2018-07-23T11:18:11.191Z,27.93
2018-07-23T11:19:11.172Z,28.06
2018-07-23T11:20:11.250Z,28.31
2018-07-23T11:21:11.248Z,28.55
2018-07-23T11:22:11.199Z,28.79
2018-07-23T11:23:11.285Z,29.02
2018-07-23T11:24:11.209Z,29.29
2018-07-23T11:25:40.215Z,28.95
2018-07-23T11:26:11.311Z,28.97
2018-07-23T11:27:11.254Z,29.18
2018-07-23T11:28:11.274Z,29.40
2018-07-23T11:29:11.240Z,29.46
2018-07-23T11:30:11.242Z,29.54
2018-07-23T11:31:11.241Z,29.55
2018-07-23T11:32:11.277Z,29.44
2018-07-23T11:33:11.307Z,29.50
2018-07-23T11:34:11.199Z,29.23
2018-07-23T11:35:11.279Z,29.31
2018-07-23T11:36:11.279Z,29.37
2018-07-23T11:37:11.306Z,29.57
2018-07-23T11:38:11.240Z,29.73
2018-07-23T11:39:11.316Z,29.72
2018-07-23T11:40:11.244Z,29.51
2018-07-23T11:41:11.240Z,29.08
2018-07-23T11:42:11.243Z,28.80
2018-07-23T11:43:11.250Z,28.94
2018-07-23T11:44:11.213Z,28.97
2018-07-23T11:45:11.299Z,28.95
2018-07-23T11:46:24.425Z,28.95
2018-07-23T11:47:11.298Z,29.16
2018-07-23T11:48:11.307Z,29.44
2018-07-23T11:49:11.224Z,29.75
2018-07-23T11:50:11.190Z,29.81
2018-07-23T11:51:11.312Z,29.76
2018-07-23T11:53:11.255Z,29.20
2018-07-23T11:54:11.225Z,29.29
2018-07-23T11:55:11.304Z,29.31
2018-07-23T11:56:11.229Z,29.44
2018-07-23T11:57:11.227Z,29.27
2018-07-23T11:58:11.260Z,29.54
2018-07-23T11:59:11.257Z,29.65
2018-07-23T12:00:11.259Z,29.73
2018-07-23T12:01:11.325Z,29.81
2018-07-23T12:02:11.328Z,29.92
2018-07-23T12:03:11.331Z,30.13
2018-07-23T12:04:11.402Z,30.03
2018-07-23T12:05:11.263Z,30.03
2018-07-23T12:06:11.331Z,30.03
2018-07-23T12:07:11.265Z,29.81
2018-07-23T12:08:11.353Z,29.58
2018-07-23T12:09:11.335Z,29.44
2018-07-23T12:10:11.303Z,29.73
2018-07-23T12:11:11.358Z,29.97
2018-07-23T12:12:11.381Z,30.03
2018-07-23T12:13:11.353Z,29.91
2018-07-23T12:14:11.376Z,29.95
2018-07-23T12:15:11.277Z,29.83
2018-07-23T12:16:11.260Z,29.65
2018-07-23T12:17:11.315Z,29.69
2018-07-23T12:18:11.263Z,29.86
2018-07-23T12:19:11.338Z,29.97
2018-07-23T12:20:11.293Z,29.88
2018-07-23T12:21:11.370Z,29.58
2018-07-23T12:22:11.383Z,29.29
2018-07-23T12:23:11.342Z,29.40
2018-07-23T12:24:11.315Z,29.64
2018-07-23T12:25:11.340Z,30.03
2018-07-23T12:26:11.397Z,30.23
2018-07-23T12:27:11.306Z,30.34
2018-07-23T12:28:11.362Z,30.53
2018-07-23T12:29:11.306Z,30.48
2018-07-23T12:30:11.373Z,30.39
2018-07-23T12:31:11.345Z,30.45
2018-07-23T12:32:11.269Z,30.65
2018-07-23T12:33:11.306Z,30.95
2018-07-23T12:34:11.378Z,31.09
2018-07-23T12:35:11.366Z,30.72
2018-07-23T12:36:11.314Z,30.08
2018-07-23T12:37:11.390Z,29.66
2018-07-23T12:38:11.288Z,29.62
2018-07-23T12:39:11.354Z,29.61
2018-07-23T12:40:11.349Z,29.97
2018-07-23T12:41:11.294Z,30.15
2018-07-23T12:42:11.294Z,30.12
2018-07-23T12:43:11.323Z,30.15
2018-07-23T12:44:11.289Z,30.27
2018-07-23T12:45:11.356Z,30.31
2018-07-23T12:46:11.355Z,30.35
2018-07-23T12:47:11.424Z,30.43
2018-07-23T12:48:11.363Z,30.57
2018-07-23T12:49:11.312Z,30.60
2018-07-23T12:50:11.398Z,30.35
2018-07-23T12:51:11.377Z,30.06
2018-07-23T12:52:11.336Z,29.86
2018-07-23T12:53:11.393Z,29.86
2018-07-23T12:54:11.269Z,29.88
2018-07-23T12:55:11.317Z,29.90